createdAt,value
2018-01-04T00:01:00.178Z,3.03
2018-01-04T00:06:01.167Z,3.03
2018-01-04T00:11:02.201Z,2.67
2018-01-04T00:16:03.905Z,3.13
2018-01-04T00:21:05.631Z,2.30
2018-01-04T00:26:06.600Z,2.57
2018-01-04T00:31:07.558Z,2.80
2018-01-04T00:36:08.532Z,2.83
2018-01-04T00:41:09.512Z,2.27
2018-01-04T00:46:10.469Z,3.10
2018-01-04T00:51:11.437Z,2.07
2018-01-04T00:56:12.405Z,2.70
2018-01-04T01:01:13.371Z,2.93
2018-01-04T01:06:14.328Z,2.50
2018-01-04T01:11:15.268Z,2.80
2018-01-04T01:16:16.233Z,2.43
2018-01-04T01:21:17.237Z,2.47
2018-01-04T01:26:18.185Z,2.83
2018-01-04T01:31:19.141Z,2.40
2018-01-04T01:36:20.860Z,2.63
2018-01-04T01:41:21.844Z,3.30
2018-01-04T01:46:22.806Z,3.50
2018-01-04T01:51:24.509Z,2.60
2018-01-04T01:56:26.288Z,3.50
2018-01-04T02:01:27.249Z,2.40
2018-01-04T02:06:28.242Z,2.83
2018-01-04T02:11:29.202Z,3.20
2018-01-04T02:16:30.154Z,3.07
2018-01-04T02:21:43.497Z,2.93
2018-01-04T02:26:57.777Z,3.00
2018-01-04T02:32:11.289Z,2.40
2018-01-04T02:37:35.185Z,2.63
2018-01-04T02:42:48.672Z,2.30
2018-01-04T02:47:50.377Z,2.10
2018-01-04T02:52:52.085Z,2.00
2018-01-04T02:57:53.053Z,2.43
2018-01-04T03:03:09.712Z,2.33
2018-01-04T03:08:11.416Z,2.47
2018-01-04T03:13:13.109Z,2.87
2018-01-04T03:18:14.811Z,2.60
2018-01-04T03:23:22.625Z,2.80
2018-01-04T03:28:29.681Z,3.33
2018-01-04T03:33:37.445Z,3.03
2018-01-04T03:38:44.477Z,2.50
2018-01-04T03:43:51.517Z,3.00
2018-01-04T03:48:58.633Z,3.20
2018-01-04T03:54:05.729Z,2.73
2018-01-04T04:04:54.000Z,2.93
2018-01-04T04:09:55.017Z,3.87
2018-01-04T04:14:56.073Z,3.10
2018-01-04T04:19:57.085Z,3.10
2018-01-04T04:24:58.173Z,3.63
2018-01-04T04:29:59.289Z,4.30
2018-01-04T04:35:01.004Z,3.90
2018-01-04T04:40:02.006Z,3.47
2018-01-04T04:45:03.118Z,3.70
2018-01-04T04:50:04.161Z,3.87
2018-01-04T04:55:05.198Z,3.23
2018-01-04T05:00:06.254Z,3.07
2018-01-04T05:05:07.895Z,3.83
2018-01-04T05:10:14.241Z,4.10
2018-01-04T05:15:15.313Z,3.40
2018-01-04T05:20:17.122Z,2.87
2018-01-04T05:25:18.174Z,2.83
2018-01-04T05:30:19.882Z,2.83
2018-01-04T05:35:20.879Z,2.40
2018-01-04T05:40:21.857Z,1.63
2018-01-04T05:45:23.550Z,2.47
2018-01-04T05:50:25.305Z,1.80
2018-01-04T05:55:26.521Z,1.70
2018-01-04T06:00:27.553Z,2.10
